createdAt,value
2023-04-22T00:00:55.918Z,95125.34
2023-04-22T00:01:59.551Z,95130.84
2023-04-22T00:03:03.721Z,95133.88
2023-04-22T00:04:07.610Z,95125.34
2023-04-22T00:05:14.292Z,95128.53
2023-04-22T00:06:20.442Z,95130.06
2023-04-22T00:07:23.208Z,95123.03
2023-04-22T00:08:25.762Z,95130.97
2023-04-22T00:09:28.653Z,95129.75
2023-04-22T00:10:30.607Z,95131.72
2023-04-22T00:11:33.468Z,95125.47
2023-04-22T00:12:35.421Z,95122.41
2023-04-22T00:13:38.214Z,95126.41
2023-04-22T00:14:40.381Z,95123.34
2023-04-22T00:15:43.265Z,95123.03
2023-04-22T00:16:45.211Z,95125.75
2023-04-22T00:17:48.315Z,95118.72
2023-04-22T00:18:50.179Z,95126.97
2023-04-22T00:19:53.141Z,95120.72
2023-04-22T00:20:55.229Z,95119.97
2023-04-22T00:21:59.424Z,95115.66
2023-04-22T00:23:01.446Z,95121.16
2023-04-22T00:24:04.553Z,95125.44
2023-04-22T00:25:07.485Z,95115.66
2023-04-22T00:26:10.298Z,95118.88
2023-04-22T00:27:14.190Z,95116.59
2023-04-22T00:28:17.035Z,95113.84
2023-04-22T00:29:18.853Z,95115.81
2023-04-22T00:30:21.657Z,95117.34
2023-04-22T00:31:23.600Z,95119.78
2023-04-22T00:32:26.863Z,95120.56
2023-04-22T00:33:28.809Z,95121.31
2023-04-22T00:34:31.589Z,95116.28
2023-04-22T00:35:33.452Z,95123.00
2023-04-22T00:36:36.386Z,95119.94
2023-04-22T00:37:39.715Z,95114.44
2023-04-22T00:38:47.459Z,95117.63
2023-04-22T00:39:49.311Z,95113.38
2023-04-22T00:40:52.148Z,95113.38
2023-04-22T00:41:55.217Z,95112.72
2023-04-22T00:42:59.128Z,95110.75
2023-04-22T00:44:01.572Z,95113.50
2023-04-22T00:45:04.938Z,95111.22
2023-04-22T00:46:06.891Z,95109.22
2023-04-22T00:47:10.832Z,95111.22
2023-04-22T00:48:13.778Z,95107.69
2023-04-22T00:49:17.814Z,95110.44
2023-04-22T00:50:19.636Z,95106.16
2023-04-22T00:51:22.463Z,95115.16
2023-04-22T00:52:24.417Z,95102.66
2023-04-22T00:53:28.696Z,95107.38
2023-04-22T00:54:31.459Z,95110.13
2023-04-22T00:55:34.492Z,95107.38
2023-04-22T00:56:38.767Z,95105.84
2023-04-22T00:57:42.021Z,95112.56
2023-04-22T00:58:44.037Z,95108.28
2023-04-22T00:59:47.604Z,95112.56
2023-04-22T01:00:49.531Z,95113.78
2023-04-22T01:01:53.156Z,95115.31
2023-04-22T01:02:55.770Z,95114.09
2023-04-22T01:04:00.844Z,95113.34
2023-04-22T01:05:03.958Z,95114.53
2023-04-22T01:06:07.577Z,95107.22
2023-04-22T01:07:09.474Z,95116.66
2023-04-22T01:08:13.300Z,95109.63
2023-04-22T01:09:19.727Z,95109.78
2023-04-22T01:10:22.832Z,95119.22
2023-04-22T01:11:27.109Z,95111.75
2023-04-22T01:12:29.985Z,95111.44
2023-04-22T01:13:32.608Z,95118.47
2023-04-22T01:14:36.050Z,95116.91
2023-04-22T01:15:38.091Z,95107.94
2023-04-22T01:16:43.462Z,95107.94
2023-04-22T01:17:45.949Z,95109.91
2023-04-22T01:18:48.909Z,95110.69
2023-04-22T01:19:52.748Z,95111.44
2023-04-22T01:20:56.157Z,95111.00
2023-04-22T01:21:59.356Z,95119.22
2023-04-22T01:23:04.865Z,95111.44
2023-04-22T01:24:08.605Z,95117.72
2023-04-22T01:25:12.327Z,95116.16
2023-04-22T01:26:14.213Z,95121.66
2023-04-22T01:27:17.176Z,95125.63
2023-04-22T01:28:19.092Z,95117.38
2023-04-22T01:29:22.168Z,95124.06
2023-04-22T01:30:24.089Z,95130.78
2023-04-22T01:31:27.129Z,95118.28
2023-04-22T01:32:30.664Z,95121.47
2023-04-22T01:33:34.596Z,95121.94
2023-04-22T01:34:36.491Z,95120.41
2023-04-22T01:35:39.935Z,95117.66
2023-04-22T01:36:41.840Z,95114.13
2023-04-22T01:37:44.698Z,95115.81
2023-04-22T01:38:46.692Z,95115.81
2023-04-22T01:39:51.303Z,95109.13
2023-04-22T01:40:53.443Z,95121.56
2023-04-22T01:41:56.812Z,95112.44
2023-04-22T01:42:59.511Z,95121.56
2023-04-22T01:44:04.797Z,95120.03
2023-04-22T01:45:07.788Z,95125.97
2023-04-22T01:46:11.131Z,95118.66
2023-04-22T01:47:13.696Z,95121.38
2023-04-22T01:48:16.519Z,95131.13
2023-04-22T01:49:18.456Z,95127.31
2023-04-22T01:50:21.851Z,95133.81
2023-04-22T01:51:24.057Z,95132.31
2023-04-22T01:52:28.155Z,95119.78
2023-04-22T01:53:30.086Z,95132.44
2023-04-22T01:54:33.480Z,95133.66
2023-04-22T01:55:38.049Z,95122.69
2023-04-22T01:56:43.642Z,95127.84
2023-04-22T01:57:45.619Z,95126.31
2023-04-22T01:58:48.897Z,95119.34
2023-04-22T01:59:50.756Z,95115.72
2023-04-22T02:00:53.628Z,95116.63
2023-04-22T02:01:55.603Z,95125.44
2023-04-22T02:02:58.616Z,95129.38
2023-04-22T02:04:00.886Z,95123.88
2023-04-22T02:05:06.689Z,95122.69
2023-04-22T02:06:08.638Z,95117.53
2023-04-22T02:07:12.740Z,95128.16
2023-04-22T02:08:14.626Z,95125.44
2023-04-22T02:09:19.940Z,95126.63
2023-04-22T02:10:21.889Z,95129.38
2023-04-22T02:11:26.177Z,95128.16
2023-04-22T02:12:28.028Z,95126.94
2023-04-22T02:13:36.330Z,95121.78
2023-04-22T02:14:38.256Z,95128.94
2023-04-22T02:15:41.439Z,95129.38
2023-04-22T02:16:43.491Z,95125.75
2023-04-22T02:17:46.388Z,95123.94
2023-04-22T02:18:48.671Z,95123.31
2023-04-22T02:19:51.872Z,95128.34
2023-04-22T02:20:53.882Z,95133.72
2023-04-22T02:21:56.798Z,95127.59
2023-04-22T02:22:58.686Z,95129.09
2023-04-22T02:24:01.806Z,95123.31
2023-04-22T02:25:04.877Z,95125.16
2023-04-22T02:26:08.983Z,95127.91
2023-04-22T02:27:12.225Z,95130.00
2023-04-22T02:28:15.327Z,95129.38
2023-04-22T02:29:17.583Z,95134.09
2023-04-22T02:30:20.506Z,95131.78
2023-04-22T02:31:22.391Z,95127.84
2023-04-22T02:32:25.715Z,95129.25
2023-04-22T02:33:28.203Z,95126.06
2023-04-22T02:34:31.078Z,95123.75
2023-04-22T02:35:32.974Z,95126.94
2023-04-22T02:36:35.849Z,95120.69
2023-04-22T02:37:38.119Z,95124.66
2023-04-22T02:38:40.951Z,95126.63
2023-04-22T02:39:43.001Z,95112.91
2023-04-22T02:40:45.986Z,95129.50
2023-04-22T02:41:47.876Z,95124.16
2023-04-22T02:42:52.687Z,95132.84
2023-04-22T02:43:54.626Z,95121.88
2023-04-22T02:44:57.716Z,95127.78
2023-04-22T02:45:59.586Z,95125.06
2023-04-22T02:47:03.825Z,95127.03
2023-04-22T02:48:05.925Z,95129.78
2023-04-22T02:49:08.772Z,95123.50
2023-04-22T02:50:11.281Z,95125.06
2023-04-22T02:51:14.338Z,95122.75
2023-04-22T02:52:16.323Z,95121.66
2023-04-22T02:53:19.193Z,95123.22
2023-04-22T02:54:21.117Z,95119.25
2023-04-22T02:55:24.664Z,95122.75
2023-04-22T02:56:27.675Z,95120.75
2023-04-22T02:57:30.886Z,95122.00
2023-04-22T02:58:34.360Z,95119.69
2023-04-22T02:59:38.039Z,95115.00
2023-04-22T03:00:40.500Z,95120.47
2023-04-22T03:01:43.517Z,95116.50
2023-04-22T03:02:51.346Z,95118.50
2023-04-22T03:03:58.418Z,95125.97
2023-04-22T03:05:01.160Z,95121.66
2023-04-22T03:06:06.062Z,95121.66
2023-04-22T03:07:08.069Z,95125.31
2023-04-22T03:08:11.763Z,95117.53
2023-04-22T03:09:15.106Z,95120.69
2023-04-22T03:10:18.067Z,95116.44
2023-04-22T03:11:20.062Z,95118.44
2023-04-22T03:12:24.037Z,95115.00
2023-04-22T03:13:25.908Z,95115.22
2023-04-22T03:14:30.120Z,95115.69
2023-04-22T03:15:31.972Z,95109.13
2023-04-22T03:16:34.956Z,95109.13
2023-04-22T03:17:39.925Z,95107.56
2023-04-22T03:18:46.493Z,95106.06
2023-04-22T03:19:48.394Z,95099.03
2023-04-22T03:20:51.414Z,95110.00
2023-04-22T03:21:53.781Z,95103.00
2023-04-22T03:22:57.173Z,95103.75
2023-04-22T03:24:01.960Z,95104.44
2023-04-22T03:25:09.031Z,95106.44
2023-04-22T03:26:12.029Z,95100.38
2023-04-22T03:27:15.593Z,95109.38
2023-04-22T03:28:17.501Z,95107.41
2023-04-22T03:29:20.331Z,95110.91
2023-04-22T03:30:23.875Z,95111.66
2023-04-22T03:31:26.899Z,95111.97
2023-04-22T03:32:28.865Z,95118.22
2023-04-22T03:33:58.029Z,95110.16
2023-04-22T03:35:04.842Z,95112.13
2023-04-22T03:36:08.982Z,95116.81
2023-04-22T03:37:11.042Z,95107.84
2023-04-22T03:38:13.915Z,95107.84
2023-04-22T03:39:15.961Z,95114.53
2023-04-22T03:40:20.761Z,95114.97
2023-04-22T03:41:26.351Z,95110.72
2023-04-22T03:42:29.272Z,95110.72
2023-04-22T03:43:32.418Z,95109.19
2023-04-22T03:44:40.621Z,95108.41
2023-04-22T03:45:44.637Z,95100.19
2023-04-22T03:46:54.890Z,95106.88
2023-04-22T03:48:00.342Z,95104.13
2023-04-22T03:49:12.802Z,95110.06
2023-04-22T03:50:14.872Z,95105.03
2023-04-22T03:51:18.050Z,95102.28
2023-04-22T03:52:19.980Z,95113.66
2023-04-22T03:53:31.088Z,95111.38
2023-04-22T03:54:32.899Z,95105.91
2023-04-22T03:55:36.321Z,95109.00
2023-04-22T03:56:38.258Z,95114.59
2023-04-22T03:57:41.190Z,95104.88
2023-04-22T03:58:44.458Z,95114.31
2023-04-22T03:59:47.374Z,95112.19
2023-04-22T04:00:51.018Z,95120.41
2023-04-22T04:01:55.718Z,95116.56
2023-04-22T04:03:01.104Z,95111.84
2023-04-22T04:04:04.424Z,95116.22
2023-04-22T04:05:13.990Z,95119.06
2023-04-22T04:06:17.028Z,95114.31
2023-04-22T04:07:19.186Z,95111.84
2023-04-22T04:08:22.080Z,95113.41
2023-04-22T04:09:24.106Z,95114.16
2023-04-22T04:10:28.065Z,95117.34
2023-04-22T04:11:31.979Z,95117.34
2023-04-22T04:12:35.841Z,95117.34
2023-04-22T04:13:37.810Z,95117.34
2023-04-22T04:15:01.133Z,95117.03
2023-04-22T04:16:06.999Z,95114.31
2023-04-22T04:17:15.288Z,95117.47
2023-04-22T04:18:17.549Z,95115.94
2023-04-22T04:19:22.507Z,95115.16
2023-04-22T04:20:24.540Z,95109.38
2023-04-22T04:21:27.850Z,95111.34
2023-04-22T04:22:30.871Z,95109.84
2023-04-22T04:23:36.250Z,95115.31
2023-04-22T04:24:41.864Z,95113.00
2023-04-22T04:25:51.973Z,95116.97
2023-04-22T04:26:53.938Z,95116.63
2023-04-22T04:28:03.682Z,95112.75
2023-04-22T04:29:06.362Z,95109.19
2023-04-22T04:30:11.322Z,95107.63
2023-04-22T04:31:21.459Z,95109.63
2023-04-22T04:32:25.082Z,95110.84
2023-04-22T04:33:28.610Z,95110.84
2023-04-22T04:34:34.368Z,95110.84
2023-04-22T04:35:38.100Z,95112.81
2023-04-22T04:36:42.098Z,95116.31
2023-04-22T04:37:53.769Z,95110.06
2023-04-22T04:38:56.956Z,95120.25
2023-04-22T04:40:00.370Z,95121.78
2023-04-22T04:41:12.372Z,95119.06
2023-04-22T04:42:14.507Z,95127.28
2023-04-22T04:43:27.056Z,95121.78
2023-04-22T04:44:36.232Z,95119.38
2023-04-22T04:45:40.202Z,95133.06
2023-04-22T04:46:46.690Z,95127.28
2023-04-22T04:47:50.562Z,95124.53
2023-04-22T04:48:58.646Z,95126.03
2023-04-22T04:50:04.274Z,95132.63
2023-04-22T04:51:07.899Z,95129.44
2023-04-22T04:52:14.451Z,95132.94
2023-04-22T04:53:17.828Z,95130.97
2023-04-22T04:54:21.058Z,95133.25
2023-04-22T04:55:23.918Z,95134.47
2023-04-22T04:56:26.066Z,95128.53
2023-04-22T04:57:30.125Z,95124.59
2023-04-22T04:58:32.726Z,95126.88
2023-04-22T05:00:05.389Z,95120.53
2023-04-22T05:01:07.345Z,95123.94
2023-04-22T05:02:11.760Z,95119.53
2023-04-22T05:03:13.915Z,95110.72
2023-04-22T05:04:17.336Z,95118.38
2023-04-22T05:05:19.642Z,95116.63
2023-04-22T05:06:23.587Z,95116.81
2023-04-22T05:07:30.666Z,95114.59
2023-04-22T05:08:33.998Z,95112.03
2023-04-22T05:09:41.461Z,95107.97
2023-04-22T05:10:45.447Z,95109.34
2023-04-22T05:11:48.137Z,95116.25
2023-04-22T05:12:54.893Z,95106.22
2023-04-22T05:14:00.414Z,95113.56
2023-04-22T05:15:09.179Z,95110.22
2023-04-22T05:16:12.523Z,95111.19
2023-04-22T05:17:16.851Z,95113.81
2023-04-22T05:18:19.030Z,95112.13
2023-04-22T05:19:22.062Z,95107.56
2023-04-22T05:20:26.124Z,95115.25
2023-04-22T05:21:29.119Z,95118.59
2023-04-22T05:22:31.618Z,95115.28
2023-04-22T05:23:34.897Z,95115.56
2023-04-22T05:24:37.643Z,95126.88
2023-04-22T05:25:40.613Z,95119.84
2023-04-22T05:26:45.722Z,95122.16
2023-04-22T05:27:54.503Z,95125.19
2023-04-22T05:28:58.087Z,95129.03
2023-04-22T05:30:01.545Z,95132.06
2023-04-22T05:31:06.935Z,95138.81
2023-04-22T05:32:09.973Z,95144.78
2023-04-22T05:33:13.714Z,95144.06
2023-04-22T05:34:16.687Z,95145.00
2023-04-22T05:35:18.781Z,95147.47
2023-04-22T05:36:21.745Z,95155.59
2023-04-22T05:37:23.964Z,95145.34
2023-04-22T05:38:27.574Z,95141.72
2023-04-22T05:39:31.043Z,95140.53
2023-04-22T05:40:35.879Z,95141.72
2023-04-22T05:41:40.595Z,95148.44
2023-04-22T05:42:44.864Z,95143.50
2023-04-22T05:43:47.707Z,95141.34
2023-04-22T05:44:53.505Z,95148.50
2023-04-22T05:45:55.824Z,95143.66
2023-04-22T05:46:58.632Z,95146.25
2023-04-22T05:48:02.207Z,95147.22
2023-04-22T05:49:09.626Z,95148.59
2023-04-22T05:50:50.938Z,95154.28
2023-04-22T05:51:53.108Z,95164.19
2023-04-22T05:52:59.716Z,95155.81
2023-04-22T05:54:03.389Z,95159.19
2023-04-22T05:55:07.429Z,95152.31
2023-04-22T05:56:09.331Z,95150.94
2023-04-22T05:57:12.215Z,95161.66
2023-04-22T05:58:14.110Z,95161.03
2023-04-22T05:59:26.461Z,95160.72
2023-04-22T06:00:28.606Z,95158.47
2023-04-22T06:01:47.054Z,95158.91
2023-04-22T06:02:53.530Z,95151.59
2023-04-22T06:03:57.396Z,95158.28
2023-04-22T06:05:02.013Z,95161.50
2023-04-22T06:06:06.231Z,95162.28
2023-04-22T06:07:08.182Z,95157.09
2023-04-22T06:08:11.899Z,95154.94
2023-04-22T06:09:14.032Z,95159.53
2023-04-22T06:10:18.268Z,95162.88
2023-04-22T06:11:20.328Z,95168.97
2023-04-22T06:12:23.411Z,95162.28
2023-04-22T06:13:25.645Z,95166.97
2023-04-22T06:14:28.584Z,95169.28
2023-04-22T06:15:30.618Z,95170.03
2023-04-22T06:16:35.425Z,95168.06
2023-04-22T06:17:39.593Z,95166.09
2023-04-22T06:18:43.451Z,95166.09
2023-04-22T06:19:46.983Z,95170.34
2023-04-22T06:20:52.207Z,95165.16
2023-04-22T06:21:54.095Z,95159.50
2023-04-22T06:22:59.355Z,95165.00
2023-04-22T06:24:01.425Z,95168.06
2023-04-22T06:25:04.974Z,95167.13
2023-04-22T06:26:06.935Z,95166.19
2023-04-22T06:27:11.409Z,95166.81
2023-04-22T06:28:13.579Z,95172.31
2023-04-22T06:29:16.475Z,95164.06
2023-04-22T06:30:18.336Z,95160.38
2023-04-22T06:31:27.404Z,95167.75
2023-04-22T06:32:30.295Z,95172.03
2023-04-22T06:33:32.328Z,95169.56
2023-04-22T06:34:35.320Z,95177.69
2023-04-22T06:35:37.300Z,95169.72
2023-04-22T06:36:42.217Z,95170.00
2023-04-22T06:37:44.283Z,95176.59
2023-04-22T06:38:48.132Z,95176.28
2023-04-22T06:40:10.226Z,95175.66
2023-04-22T06:41:32.491Z,95175.94
2023-04-22T06:42:40.403Z,95174.34
2023-04-22T06:44:12.548Z,95174.38
2023-04-22T06:45:17.378Z,95174.38
2023-04-22T06:46:38.181Z,95167.19
2023-04-22T06:48:01.301Z,95163.50
2023-04-22T06:49:18.052Z,95165.97
2023-04-22T06:50:39.914Z,95166.41
2023-04-22T06:51:43.489Z,95171.78
2023-04-22T06:52:46.402Z,95156.75
2023-04-22T06:53:48.717Z,95168.38
2023-04-22T06:54:52.258Z,95162.41
2023-04-22T06:55:54.679Z,95165.47
2023-04-22T06:56:57.518Z,95170.03
2023-04-22T06:57:59.392Z,95166.34
2023-04-22T06:59:02.564Z,95163.91
2023-04-22T07:00:08.436Z,95164.19
2023-04-22T07:01:13.664Z,95161.44
2023-04-22T07:02:16.970Z,95167.56
2023-04-22T07:03:20.627Z,95165.09
2023-04-22T07:04:33.100Z,95169.06
2023-04-22T07:05:37.858Z,95168.75
2023-04-22T07:06:42.806Z,95171.81
2023-04-22T07:07:47.484Z,95171.53
2023-04-22T07:08:54.183Z,95167.56
2023-04-22T07:09:57.330Z,95174.72
2023-04-22T07:11:02.632Z,95174.06
2023-04-22T07:12:25.536Z,95165.81
2023-04-22T07:13:27.481Z,95162.91
2023-04-22T07:14:30.829Z,95164.16
2023-04-22T07:15:32.771Z,95173.47
2023-04-22T07:16:35.626Z,95161.69
2023-04-22T07:17:37.486Z,95167.22
2023-04-22T07:18:40.373Z,95157.69
2023-04-22T07:19:42.388Z,95162.00
2023-04-22T07:20:45.267Z,95165.06
2023-04-22T07:21:47.330Z,95154.31
2023-04-22T07:22:52.328Z,95160.59
2023-04-22T07:23:55.168Z,95161.66
2023-04-22T07:24:57.018Z,95155.69
2023-04-22T07:25:59.927Z,95158.69
2023-04-22T07:27:02.375Z,95156.25
2023-04-22T07:28:05.197Z,95161.00
2023-04-22T07:29:07.343Z,95162.53
2023-04-22T07:30:12.920Z,95162.81
2023-04-22T07:31:14.755Z,95161.91
2023-04-22T07:32:17.558Z,95158.38
2023-04-22T07:33:19.332Z,95156.69
2023-04-22T07:34:22.177Z,95151.47
2023-04-22T07:35:25.093Z,95155.28
2023-04-22T07:36:26.965Z,95161.09
2023-04-22T07:37:29.814Z,95155.09
2023-04-22T07:38:33.044Z,95151.69
2023-04-22T07:39:35.891Z,95145.69
2023-04-22T07:40:38.687Z,95148.75
2023-04-22T07:41:40.542Z,95149.50
2023-04-22T07:42:43.424Z,95145.53
2023-04-22T07:43:45.470Z,95144.94
2023-04-22T07:44:48.252Z,95146.16
2023-04-22T07:45:50.465Z,95148.91
2023-04-22T07:46:54.028Z,95147.72
2023-04-22T07:47:56.010Z,95149.22
2023-04-22T07:48:58.874Z,95151.38
2023-04-22T07:50:00.910Z,95148.28
2023-04-22T07:51:03.911Z,95153.34
2023-04-22T07:52:05.769Z,95151.69
2023-04-22T07:53:10.707Z,95149.19
2023-04-22T07:54:13.979Z,95146.44
2023-04-22T07:55:16.934Z,95149.03
2023-04-22T07:56:18.805Z,95144.25
2023-04-22T07:57:22.555Z,95148.25
2023-04-22T07:58:24.422Z,95151.31
2023-04-22T07:59:27.315Z,95152.97
2023-04-22T08:00:29.502Z,95150.00
2023-04-22T08:01:32.406Z,95150.28
2023-04-22T08:02:34.373Z,95157.06
2023-04-22T08:03:37.359Z,95161.03
2023-04-22T08:04:39.849Z,95154.00
2023-04-22T08:05:43.215Z,95154.88
2023-04-22T08:06:45.076Z,95153.66
2023-04-22T08:07:47.916Z,95156.69
2023-04-22T08:08:49.736Z,95149.63
2023-04-22T08:09:55.932Z,95157.00
2023-04-22T08:10:57.816Z,95154.41
2023-04-22T08:12:01.332Z,95154.41
2023-04-22T08:13:03.250Z,95152.41
2023-04-22T08:14:06.089Z,95155.16
2023-04-22T08:15:08.705Z,95154.22
2023-04-22T08:16:12.562Z,95155.75
2023-04-22T08:17:15.236Z,95154.50
2023-04-22T08:18:18.076Z,95154.78
2023-04-22T08:19:20.849Z,95158.59
2023-04-22T08:20:23.767Z,95152.16
2023-04-22T08:21:27.364Z,95160.72
2023-04-22T08:22:30.215Z,95153.66
2023-04-22T08:23:32.493Z,95162.25
2023-04-22T08:24:35.448Z,95154.72
2023-04-22T08:25:39.694Z,95143.97
2023-04-22T08:26:42.099Z,95154.09
2023-04-22T08:27:45.012Z,95150.38
2023-04-22T08:28:47.156Z,95153.13
2023-04-22T08:29:50.318Z,95154.63
2023-04-22T08:30:52.266Z,95162.91
2023-04-22T08:31:55.066Z,95156.19
2023-04-22T08:32:56.951Z,95156.94
2023-04-22T08:33:59.777Z,95158.94
2023-04-22T08:35:04.730Z,95158.94
2023-04-22T08:36:08.869Z,95150.66
2023-04-22T08:37:10.736Z,95153.41
2023-04-22T08:38:13.555Z,95151.41
2023-04-22T08:39:16.175Z,95155.22
2023-04-22T08:40:19.058Z,95151.25
2023-04-22T08:41:24.465Z,95153.03
2023-04-22T08:42:28.220Z,95153.34
2023-04-22T08:43:30.649Z,95151.16
2023-04-22T08:44:35.322Z,95152.66
2023-04-22T08:45:39.595Z,95151.72
2023-04-22T08:46:46.715Z,95147.22
2023-04-22T08:47:51.112Z,95151.81
2023-04-22T08:48:54.394Z,95144.59
2023-04-22T08:49:57.408Z,95153.16
2023-04-22T08:51:00.326Z,95143.16
2023-04-22T08:52:03.474Z,95142.97
2023-04-22T08:53:05.454Z,95144.22
2023-04-22T08:54:08.448Z,95139.44
2023-04-22T08:55:10.316Z,95146.50
2023-04-22T08:56:14.449Z,95142.19
2023-04-22T08:57:18.787Z,95140.78
2023-04-22T08:58:22.080Z,95143.81
2023-04-22T08:59:23.985Z,95139.84
2023-04-22T09:00:27.055Z,95142.84
2023-04-22T09:01:31.639Z,95138.88
2023-04-22T09:02:34.944Z,95144.41
2023-04-22T09:03:40.806Z,95144.69
2023-04-22T09:04:43.336Z,95139.91
2023-04-22T09:05:47.866Z,95133.94
2023-04-22T09:06:50.012Z,95143.72
2023-04-22T09:07:53.665Z,95135.44
2023-04-22T09:08:56.244Z,95139.44
2023-04-22T09:10:00.022Z,95144.63
2023-04-22T09:11:03.564Z,95133.06
2023-04-22T09:12:06.564Z,95134.41
2023-04-22T09:13:11.772Z,95129.16
2023-04-22T09:14:13.713Z,95130.69
2023-04-22T09:15:16.681Z,95128.22
2023-04-22T09:16:18.635Z,95128.22
2023-04-22T09:17:32.469Z,95133.94
2023-04-22T09:18:42.701Z,95128.69
2023-04-22T09:19:44.624Z,95128.19
2023-04-22T09:20:48.916Z,95131.16
2023-04-22T09:21:53.609Z,95126.09
2023-04-22T09:22:58.707Z,95132.38
2023-04-22T09:24:02.413Z,95130.88
2023-04-22T09:25:05.720Z,95125.94
2023-04-22T09:26:08.457Z,95125.13
2023-04-22T09:27:12.294Z,95127.16
2023-04-22T09:28:19.404Z,95124.38
2023-04-22T09:29:22.346Z,95129.91
2023-04-22T09:30:26.141Z,95120.41
2023-04-22T09:31:29.471Z,95117.13
2023-04-22T09:32:31.409Z,95119.44
2023-04-22T09:33:34.315Z,95126.75
2023-04-22T09:34:46.541Z,95125.53
2023-04-22T09:35:49.421Z,95124.00
2023-04-22T09:36:52.065Z,95120.19
2023-04-22T09:37:55.088Z,95129.22
2023-04-22T09:39:00.002Z,95120.47
2023-04-22T09:40:01.966Z,95116.94
2023-04-22T09:41:10.535Z,95118.47
2023-04-22T09:42:12.493Z,95115.22
2023-04-22T09:43:20.760Z,95119.72
2023-04-22T09:44:22.687Z,95115.22
2023-04-22T09:45:33.889Z,95116.72
2023-04-22T09:46:35.875Z,95110.81
2023-04-22T09:47:38.857Z,95111.47
2023-04-22T09:48:43.055Z,95118.03
2023-04-22T09:49:47.892Z,95109.75
2023-04-22T09:50:51.074Z,95114.22
2023-04-22T09:51:57.855Z,95118.22
2023-04-22T09:53:02.065Z,95108.91
2023-04-22T09:54:09.846Z,95107.84
2023-04-22T09:55:11.767Z,95111.88
2023-04-22T09:56:14.834Z,95109.66
2023-04-22T09:57:17.224Z,95105.44
2023-04-22T09:58:23.853Z,95108.69
2023-04-22T09:59:28.210Z,95109.25
2023-04-22T10:00:31.811Z,95106.75
2023-04-22T10:01:36.202Z,95103.19
2023-04-22T10:02:39.417Z,95095.69
2023-04-22T10:03:41.545Z,95095.22
2023-04-22T10:04:44.385Z,95105.03
2023-04-22T10:05:47.599Z,95103.03
2023-04-22T10:06:50.054Z,95098.00
2023-04-22T10:07:53.582Z,95097.25
2023-04-22T10:08:55.609Z,95093.22
2023-04-22T10:09:58.747Z,95093.97
2023-04-22T10:11:00.727Z,95097.00
2023-04-22T10:12:03.781Z,95091.84
2023-04-22T10:13:06.515Z,95093.22
2023-04-22T10:14:13.836Z,95085.50
2023-04-22T10:15:15.845Z,95087.22
2023-04-22T10:16:20.939Z,95087.22
2023-04-22T10:17:23.017Z,95086.47
2023-04-22T10:18:27.896Z,95086.47
2023-04-22T10:19:32.909Z,95087.22
2023-04-22T10:20:36.661Z,95087.97
2023-04-22T10:21:42.322Z,95083.97
2023-04-22T10:22:44.749Z,95084.50
2023-04-22T10:23:48.833Z,95087.56
2023-04-22T10:24:55.302Z,95086.81
2023-04-22T10:25:58.706Z,95086.06
2023-04-22T10:27:06.534Z,95087.56
2023-04-22T10:28:12.096Z,95085.81
2023-04-22T10:29:17.549Z,95081.03
2023-04-22T10:30:28.609Z,95081.03
2023-04-22T10:31:30.976Z,95090.03
2023-04-22T10:32:33.935Z,95077.34
2023-04-22T10:33:36.701Z,95083.34
2023-04-22T10:34:39.966Z,95077.06
2023-04-22T10:36:08.930Z,95076.50
2023-04-22T10:37:13.220Z,95079.53
2023-04-22T10:38:16.284Z,95087.28
2023-04-22T10:39:19.249Z,95076.78
2023-04-22T10:40:23.631Z,95075.25
2023-04-22T10:41:26.495Z,95076.22
2023-04-22T10:42:30.009Z,95076.50
2023-04-22T10:43:42.684Z,95075.50
2023-04-22T10:44:54.309Z,95068.19
2023-04-22T10:45:56.614Z,95063.13
2023-04-22T10:47:00.966Z,95061.16
2023-04-22T10:48:05.177Z,95059.91
2023-04-22T10:49:07.728Z,95066.47
2023-04-22T10:50:12.811Z,95057.22
2023-04-22T10:51:39.566Z,95064.31
2023-04-22T10:52:43.917Z,95056.88
2023-04-22T10:53:46.415Z,95056.38
2023-04-22T10:55:00.602Z,95054.66
2023-04-22T10:56:03.578Z,95054.94
2023-04-22T10:57:07.059Z,95053.41
2023-04-22T10:58:20.458Z,95054.94
2023-04-22T10:59:22.371Z,95055.41
2023-04-22T11:00:52.525Z,95050.63
2023-04-22T11:01:55.791Z,95059.97
2023-04-22T11:03:13.988Z,95053.19
2023-04-22T11:04:23.556Z,95054.22
2023-04-22T11:05:28.384Z,95055.19
2023-04-22T11:06:31.298Z,95053.66
2023-04-22T11:07:35.610Z,95057.25
2023-04-22T11:08:38.488Z,95063.34
2023-04-22T11:09:40.932Z,95049.00
2023-04-22T11:10:45.751Z,95047.50
2023-04-22T11:11:48.014Z,95055.09
2023-04-22T11:12:51.056Z,95054.88
2023-04-22T11:13:54.981Z,95054.66
2023-04-22T11:14:57.312Z,95059.97
2023-04-22T11:16:01.994Z,95054.19
2023-04-22T11:17:03.855Z,95053.69
2023-04-22T11:18:11.848Z,95053.69
2023-04-22T11:19:14.715Z,95052.44
2023-04-22T11:20:17.465Z,95055.19
2023-04-22T11:21:22.363Z,95054.44
2023-04-22T11:22:24.606Z,95062.75
2023-04-22T11:23:29.747Z,95058.72
2023-04-22T11:24:31.646Z,95063.78
2023-04-22T11:25:34.661Z,95061.75
2023-04-22T11:26:37.590Z,95058.25
2023-04-22T11:27:43.473Z,95065.66
2023-04-22T11:28:47.455Z,95063.72
2023-04-22T11:30:00.374Z,95066.41
2023-04-22T11:31:06.586Z,95065.63
2023-04-22T11:32:11.299Z,95063.34
2023-04-22T11:33:16.496Z,95067.09
2023-04-22T11:34:18.570Z,95064.59
2023-04-22T11:35:23.002Z,95062.03
2023-04-22T11:36:25.882Z,95062.03
2023-04-22T11:37:29.363Z,95067.78
2023-04-22T11:38:33.132Z,95059.47
2023-04-22T11:39:36.150Z,95061.50
2023-04-22T11:40:42.791Z,95061.28
2023-04-22T11:41:46.837Z,95063.81
2023-04-22T11:42:50.841Z,95058.06
2023-04-22T11:43:54.868Z,95058.84
2023-04-22T11:44:56.872Z,95054.56
2023-04-22T11:46:00.359Z,95051.50
2023-04-22T11:47:03.579Z,95059.53
2023-04-22T11:48:08.039Z,95054.00
2023-04-22T11:49:14.017Z,95054.56
2023-04-22T11:50:16.996Z,95052.28
2023-04-22T11:51:19.934Z,95054.28
2023-04-22T11:52:21.818Z,95055.78
2023-04-22T11:53:24.745Z,95056.34
2023-04-22T11:54:31.834Z,95050.78
2023-04-22T11:55:36.468Z,95056.06
2023-04-22T11:56:38.309Z,95050.25
2023-04-22T11:57:41.635Z,95053.78
2023-04-22T11:58:44.528Z,95054.09
2023-04-22T11:59:57.380Z,95050.16
2023-04-22T12:01:00.667Z,95051.72
2023-04-22T12:02:07.057Z,95057.53
2023-04-22T12:03:15.731Z,95053.22
2023-04-22T12:04:18.426Z,95058.22
2023-04-22T12:05:21.287Z,95052.69
2023-04-22T12:06:24.196Z,95044.34
2023-04-22T12:07:27.000Z,95047.31
2023-04-22T12:08:33.200Z,95046.28
2023-04-22T12:09:35.121Z,95047.53
2023-04-22T12:10:42.692Z,95052.56
2023-04-22T12:11:45.487Z,95047.53
2023-04-22T12:12:49.895Z,95047.28
2023-04-22T12:13:54.205Z,95045.00
2023-04-22T12:14:58.102Z,95044.44
2023-04-22T12:16:02.660Z,95043.25
2023-04-22T12:17:09.366Z,95041.19
2023-04-22T12:18:13.230Z,95038.91
2023-04-22T12:19:15.048Z,95038.91
2023-04-22T12:20:17.869Z,95038.16
2023-04-22T12:21:23.639Z,95046.94
2023-04-22T12:22:26.363Z,95041.41
2023-04-22T12:23:29.483Z,95042.19
2023-04-22T12:24:31.422Z,95037.13
2023-04-22T12:25:34.873Z,95041.41
2023-04-22T12:26:37.895Z,95042.69
2023-04-22T12:27:40.724Z,95048.03
2023-04-22T12:28:43.704Z,95035.97
2023-04-22T12:29:53.749Z,95030.97
2023-04-22T12:30:56.644Z,95041.28
2023-04-22T12:31:58.543Z,95043.31
2023-04-22T12:33:02.777Z,95036.50
2023-04-22T12:34:04.821Z,95038.03
2023-04-22T12:35:08.618Z,95041.84